sensor_id;sensor_type;location;lat;lon;timestamp;temperature;humidity
10233;DHT22;5161;48.174;11.756;2023-02-13T00:01:52;4.50;91.60
10233;DHT22;5161;48.174;11.756;2023-02-13T00:04:17;4.50;91.60
10233;DHT22;5161;48.174;11.756;2023-02-13T00:06:43;4.50;91.70
10233;DHT22;5161;48.174;11.756;2023-02-13T00:09:08;4.50;91.70
10233;DHT22;5161;48.174;11.756;2023-02-13T00:11:36;4.50;91.70
10233;DHT22;5161;48.174;11.756;2023-02-13T00:14:01;4.50;91.70
10233;DHT22;5161;48.174;11.756;2023-02-13T00:16:27;4.50;91.80
10233;DHT22;5161;48.174;11.756;2023-02-13T00:18:53;4.60;91.90
10233;DHT22;5161;48.174;11.756;2023-02-13T00:21:18;4.60;92.00
10233;DHT22;5161;48.174;11.756;2023-02-13T00:23:44;4.60;91.80
10233;DHT22;5161;48.174;11.756;2023-02-13T00:26:12;4.60;91.90
10233;DHT22;5161;48.174;11.756;2023-02-13T00:28:38;4.60;92.00
10233;DHT22;5161;48.174;11.756;2023-02-13T00:31:12;4.60;92.10
10233;DHT22;5161;48.174;11.756;2023-02-13T00:33:38;4.60;92.20
10233;DHT22;5161;48.174;11.756;2023-02-13T00:36:12;4.60;92.20
10233;DHT22;5161;48.174;11.756;2023-02-13T00:38:39;4.50;92.30
10233;DHT22;5161;48.174;11.756;2023-02-13T00:41:05;4.50;92.20
10233;DHT22;5161;48.174;11.756;2023-02-13T00:43:31;4.50;92.20
10233;DHT22;5161;48.174;11.756;2023-02-13T00:45:57;4.60;92.30
10233;DHT22;5161;48.174;11.756;2023-02-13T00:48:27;4.60;92.30
10233;DHT22;5161;48.174;11.756;2023-02-13T00:50:53;4.60;92.60
10233;DHT22;5161;48.174;11.756;2023-02-13T00:53:23;4.50;92.30
10233;DHT22;5161;48.174;11.756;2023-02-13T00:55:50;4.50;92.50
10233;DHT22;5161;48.174;11.756;2023-02-13T00:58:16;4.50;92.60
10233;DHT22;5161;48.174;11.756;2023-02-13T01:00:43;4.60;92.50
10233;DHT22;5161;48.174;11.756;2023-02-13T01:03:09;4.60;92.50
10233;DHT22;5161;48.174;11.756;2023-02-13T01:05:34;4.50;92.50
10233;DHT22;5161;48.174;11.756;2023-02-13T01:08:00;4.50;92.50
10233;DHT22;5161;48.174;11.756;2023-02-13T01:10:26;4.60;92.70
10233;DHT22;5161;48.174;11.756;2023-02-13T01:12:52;4.50;92.60
10233;DHT22;5161;48.174;11.756;2023-02-13T01:15:18;4.60;92.70
10233;DHT22;5161;48.174;11.756;2023-02-13T01:17:44;4.60;92.70
10233;DHT22;5161;48.174;11.756;2023-02-13T01:20:11;4.60;92.60
10233;DHT22;5161;48.174;11.756;2023-02-13T01:22:37;4.60;92.60
10233;DHT22;5161;48.174;11.756;2023-02-13T01:25:04;4.60;92.60
10233;DHT22;5161;48.174;11.756;2023-02-13T01:27:30;4.60;92.50
10233;DHT22;5161;48.174;11.756;2023-02-13T01:29:57;4.60;92.60
10233;DHT22;5161;48.174;11.756;2023-02-13T01:32:23;4.50;92.60
10233;DHT22;5161;48.174;11.756;2023-02-13T01:34:48;4.60;92.60
10233;DHT22;5161;48.174;11.756;2023-02-13T01:37:14;4.60;92.70
10233;DHT22;5161;48.174;11.756;2023-02-13T01:39:39;4.50;92.60
10233;DHT22;5161;48.174;11.756;2023-02-13T01:42:20;4.50;92.70
10233;DHT22;5161;48.174;11.756;2023-02-13T01:47:39;4.50;92.80
10233;DHT22;5161;48.174;11.756;2023-02-13T01:50:16;4.60;92.90
10233;DHT22;5161;48.174;11.756;2023-02-13T01:53:29;4.60;92.90
10233;DHT22;5161;48.174;11.756;2023-02-13T01:55:38;4.60;92.70
10233;DHT22;5161;48.174;11.756;2023-02-13T01:58:15;4.50;92.70
10233;DHT22;5161;48.174;11.756;2023-02-13T02:00:44;4.40;92.70
10233;DHT22;5161;48.174;11.756;2023-02-13T02:03:20;4.50;92.70
10233;DHT22;5161;48.174;11.756;2023-02-13T02:05:49;4.40;92.60
10233;DHT22;5161;48.174;11.756;2023-02-13T02:08:15;4.30;92.60
10233;DHT22;5161;48.174;11.756;2023-02-13T02:10:42;4.30;92.70
10233;DHT22;5161;48.174;11.756;2023-02-13T02:13:14;4.30;92.80
10233;DHT22;5161;48.174;11.756;2023-02-13T02:15:41;4.30;92.70
10233;DHT22;5161;48.174;11.756;2023-02-13T02:18:17;4.30;92.70
10233;DHT22;5161;48.174;11.756;2023-02-13T02:35:00;4.30;92.70
10233;DHT22;5161;48.174;11.756;2023-02-13T02:43:54;4.40;92.70
10233;DHT22;5161;48.174;11.756;2023-02-13T02:48:41;4.30;92.60
10233;DHT22;5161;48.174;11.756;2023-02-13T02:51:37;4.20;92.60
10233;DHT22;5161;48.174;11.756;2023-02-13T02:54:23;4.20;92.60
10233;DHT22;5161;48.174;11.756;2023-02-13T02:57:15;4.20;92.60
10233;DHT22;5161;48.174;11.756;2023-02-13T02:59:43;4.00;92.50
10233;DHT22;5161;48.174;11.756;2023-02-13T03:02:30;4.00;92.50
10233;DHT22;5161;48.174;11.756;2023-02-13T03:05:28;4.10;92.70
10233;DHT22;5161;48.174;11.756;2023-02-13T03:08:14;4.10;92.70
10233;DHT22;5161;48.174;11.756;2023-02-13T03:11:00;4.00;92.60
10233;DHT22;5161;48.174;11.756;2023-02-13T03:13:46;4.00;92.30
10233;DHT22;5161;48.174;11.756;2023-02-13T03:16:18;3.90;92.40
10233;DHT22;5161;48.174;11.756;2023-02-13T03:19:05;3.80;92.40
10233;DHT22;5161;48.174;11.756;2023-02-13T03:21:58;3.80;92.60
10233;DHT22;5161;48.174;11.756;2023-02-13T03:30:59;3.80;92.50
10233;DHT22;5161;48.174;11.756;2023-02-13T03:36:21;3.70;92.60
10233;DHT22;5161;48.174;11.756;2023-02-13T03:39:11;3.80;92.80
10233;DHT22;5161;48.174;11.756;2023-02-13T03:41:44;3.80;92.70
10233;DHT22;5161;48.174;11.756;2023-02-13T03:44:34;3.80;92.60
10233;DHT22;5161;48.174;11.756;2023-02-13T03:47:02;3.70;92.60
10233;DHT22;5161;48.174;11.756;2023-02-13T03:49:44;3.60;92.70
10233;DHT22;5161;48.174;11.756;2023-02-13T03:55:33;3.80;92.70
10233;DHT22;5161;48.174;11.756;2023-02-13T03:58:28;3.80;92.80
10233;DHT22;5161;48.174;11.756;2023-02-13T04:01:16;3.80;92.80
10233;DHT22;5161;48.174;11.756;2023-02-13T04:07:04;3.80;92.70
10233;DHT22;5161;48.174;11.756;2023-02-13T04:09:32;3.80;92.80
10233;DHT22;5161;48.174;11.756;2023-02-13T04:12:20;3.80;92.70
10233;DHT22;5161;48.174;11.756;2023-02-13T04:15:06;3.80;92.80
10233;DHT22;5161;48.174;11.756;2023-02-13T04:17:37;3.80;92.90
10233;DHT22;5161;48.174;11.756;2023-02-13T04:20:05;3.90;93.00
10233;DHT22;5161;48.174;11.756;2023-02-13T04:22:31;3.90;92.90
10233;DHT22;5161;48.174;11.756;2023-02-13T04:24:56;3.80;92.80
10233;DHT22;5161;48.174;11.756;2023-02-13T04:27:24;3.80;92.90
10233;DHT22;5161;48.174;11.756;2023-02-13T04:29:51;3.90;93.00
10233;DHT22;5161;48.174;11.756;2023-02-13T04:32:17;3.80;92.90
10233;DHT22;5161;48.174;11.756;2023-02-13T04:34:43;3.80;93.10
10233;DHT22;5161;48.174;11.756;2023-02-13T04:37:08;3.90;93.20
10233;DHT22;5161;48.174;11.756;2023-02-13T04:39:34;3.90;93.20
10233;DHT22;5161;48.174;11.756;2023-02-13T04:41:59;4.00;93.00
10233;DHT22;5161;48.174;11.756;2023-02-13T04:44:25;3.90;92.80
10233;DHT22;5161;48.174;11.756;2023-02-13T04:46:51;3.80;92.90
10233;DHT22;5161;48.174;11.756;2023-02-13T04:49:16;3.80;93.00
10233;DHT22;5161;48.174;11.756;2023-02-13T04:51:42;3.80;93.00
10233;DHT22;5161;48.174;11.756;2023-02-13T04:54:07;3.80;93.10
10233;DHT22;5161;48.174;11.756;2023-02-13T04:56:33;3.90;93.00
10233;DHT22;5161;48.174;11.756;2023-02-13T04:58:58;3.80;93.00
10233;DHT22;5161;48.174;11.756;2023-02-13T05:01:24;3.90;93.00
10233;DHT22;5161;48.174;11.756;2023-02-13T05:03:49;3.80;93.00
10233;DHT22;5161;48.174;11.756;2023-02-13T05:06:15;3.80;93.10
10233;DHT22;5161;48.174;11.756;2023-02-13T05:08:40;3.80;93.10
10233;DHT22;5161;48.174;11.756;2023-02-13T05:11:06;3.80;93.10
10233;DHT22;5161;48.174;11.756;2023-02-13T05:13:32;3.80;93.20
10233;DHT22;5161;48.174;11.756;2023-02-13T05:15:58;3.80;93.10
10233;DHT22;5161;48.174;11.756;2023-02-13T05:18:24;3.90;93.40
10233;DHT22;5161;48.174;11.756;2023-02-13T05:20:49;3.90;93.20
10233;DHT22;5161;48.174;11.756;2023-02-13T05:23:35;3.90;93.20
10233;DHT22;5161;48.174;11.756;2023-02-13T05:26:00;3.80;93.20
10233;DHT22;5161;48.174;11.756;2023-02-13T05:28:26;3.80;93.20
10233;DHT22;5161;48.174;11.756;2023-02-13T05:31:11;3.80;93.20
10233;DHT22;5161;48.174;11.756;2023-02-13T05:33:36;3.80;93.20
10233;DHT22;5161;48.174;11.756;2023-02-13T05:36:02;3.90;93.20
10233;DHT22;5161;48.174;11.756;2023-02-13T05:38:28;3.90;93.30
10233;DHT22;5161;48.174;11.756;2023-02-13T05:40:53;3.90;93.20
10233;DHT22;5161;48.174;11.756;2023-02-13T05:43:19;3.90;93.20
10233;DHT22;5161;48.174;11.756;2023-02-13T05:45:45;3.80;93.10
10233;DHT22;5161;48.174;11.756;2023-02-13T05:48:10;3.80;93.20
10233;DHT22;5161;48.174;11.756;2023-02-13T05:50:36;3.80;93.20
10233;DHT22;5161;48.174;11.756;2023-02-13T05:53:02;3.80;93.20
10233;DHT22;5161;48.174;11.756;2023-02-13T05:55:28;3.80;93.20
10233;DHT22;5161;48.174;11.756;2023-02-13T05:57:57;3.80;93.20
10233;DHT22;5161;48.174;11.756;2023-02-13T06:00:23;3.80;93.30
10233;DHT22;5161;48.174;11.756;2023-02-13T06:02:48;3.90;93.40
10233;DHT22;5161;48.174;11.756;2023-02-13T06:05:14;3.90;93.30
10233;DHT22;5161;48.174;11.756;2023-02-13T06:07:40;3.80;93.30
10233;DHT22;5161;48.174;11.756;2023-02-13T06:10:06;3.80;93.30
10233;DHT22;5161;48.174;11.756;2023-02-13T06:12:32;3.80;93.30
10233;DHT22;5161;48.174;11.756;2023-02-13T06:14:57;3.80;93.30
10233;DHT22;5161;48.174;11.756;2023-02-13T06:17:23;3.80;93.30
10233;DHT22;5161;48.174;11.756;2023-02-13T06:19:48;3.80;93.30
10233;DHT22;5161;48.174;11.756;2023-02-13T06:22:14;3.80;93.30
10233;DHT22;5161;48.174;11.756;2023-02-13T06:24:39;3.80;93.30
10233;DHT22;5161;48.174;11.756;2023-02-13T06:27:05;3.70;93.30
10233;DHT22;5161;48.174;11.756;2023-02-13T06:29:30;3.80;93.40
10233;DHT22;5161;48.174;11.756;2023-02-13T06:31:57;3.80;93.40
10233;DHT22;5161;48.174;11.756;2023-02-13T06:34:23;3.80;93.50
10233;DHT22;5161;48.174;11.756;2023-02-13T06:36:48;3.90;93.40
10233;DHT22;5161;48.174;11.756;2023-02-13T06:39:14;3.80;93.40
10233;DHT22;5161;48.174;11.756;2023-02-13T06:41:39;3.90;93.50
10233;DHT22;5161;48.174;11.756;2023-02-13T06:44:05;3.80;93.40
10233;DHT22;5161;48.174;11.756;2023-02-13T06:46:32;3.80;93.40
10233;DHT22;5161;48.174;11.756;2023-02-13T06:48:57;3.80;93.40
10233;DHT22;5161;48.174;11.756;2023-02-13T06:51:23;3.90;93.60
10233;DHT22;5161;48.174;11.756;2023-02-13T06:53:49;3.90;93.60
10233;DHT22;5161;48.174;11.756;2023-02-13T06:56:14;3.90;93.60
10233;DHT22;5161;48.174;11.756;2023-02-13T06:58:40;3.90;93.60
10233;DHT22;5161;48.174;11.756;2023-02-13T07:01:06;3.90;93.60
10233;DHT22;5161;48.174;11.756;2023-02-13T07:03:31;3.90;93.50
10233;DHT22;5161;48.174;11.756;2023-02-13T07:05:57;3.90;93.40
10233;DHT22;5161;48.174;11.756;2023-02-13T07:08:23;3.80;93.40
10233;DHT22;5161;48.174;11.756;2023-02-13T07:10:48;3.80;93.40
10233;DHT22;5161;48.174;11.756;2023-02-13T07:13:14;3.80;93.40
10233;DHT22;5161;48.174;11.756;2023-02-13T07:15:40;3.80;93.40
10233;DHT22;5161;48.174;11.756;2023-02-13T07:18:05;3.80;93.40
10233;DHT22;5161;48.174;11.756;2023-02-13T07:20:31;3.80;93.40
10233;DHT22;5161;48.174;11.756;2023-02-13T07:23:05;3.70;93.70
10233;DHT22;5161;48.174;11.756;2023-02-13T07:25:31;3.80;93.60
10233;DHT22;5161;48.174;11.756;2023-02-13T07:28:02;3.80;93.50
10233;DHT22;5161;48.174;11.756;2023-02-13T07:30:28;3.80;93.50
10233;DHT22;5161;48.174;11.756;2023-02-13T07:33:00;3.80;93.50
10233;DHT22;5161;48.174;11.756;2023-02-13T07:35:26;3.90;93.50
10233;DHT22;5161;48.174;11.756;2023-02-13T07:37:55;3.80;93.40
10233;DHT22;5161;48.174;11.756;2023-02-13T07:40:20;3.80;93.60
10233;DHT22;5161;48.174;11.756;2023-02-13T07:42:46;3.80;93.50
10233;DHT22;5161;48.174;11.756;2023-02-13T07:45:12;3.70;93.50
10233;DHT22;5161;48.174;11.756;2023-02-13T07:47:39;3.70;93.70
10233;DHT22;5161;48.174;11.756;2023-02-13T07:50:05;3.80;93.80
10233;DHT22;5161;48.174;11.756;2023-02-13T07:52:31;3.90;93.80
10233;DHT22;5161;48.174;11.756;2023-02-13T07:54:57;3.90;93.80
10233;DHT22;5161;48.174;11.756;2023-02-13T07:57:23;3.90;93.60
10233;DHT22;5161;48.174;11.756;2023-02-13T07:59:48;3.80;93.70
10233;DHT22;5161;48.174;11.756;2023-02-13T08:02:15;3.90;93.80
10233;DHT22;5161;48.174;11.756;2023-02-13T08:04:41;3.90;93.80
10233;DHT22;5161;48.174;11.756;2023-02-13T08:07:10;3.90;93.80
10233;DHT22;5161;48.174;11.756;2023-02-13T08:09:36;3.90;93.70
10233;DHT22;5161;48.174;11.756;2023-02-13T08:12:20;3.80;93.70
10233;DHT22;5161;48.174;11.756;2023-02-13T08:14:46;3.80;93.80
10233;DHT22;5161;48.174;11.756;2023-02-13T08:17:11;3.90;93.80
10233;DHT22;5161;48.174;11.756;2023-02-13T08:19:38;3.90;93.80
10233;DHT22;5161;48.174;11.756;2023-02-13T08:22:03;3.80;93.80
10233;DHT22;5161;48.174;11.756;2023-02-13T08:24:29;3.90;93.90
10233;DHT22;5161;48.174;11.756;2023-02-13T08:26:55;3.90;93.90
10233;DHT22;5161;48.174;11.756;2023-02-13T08:29:21;3.90;93.80
10233;DHT22;5161;48.174;11.756;2023-02-13T08:31:46;3.90;93.90
10233;DHT22;5161;48.174;11.756;2023-02-13T08:34:12;3.90;93.90
10233;DHT22;5161;48.174;11.756;2023-02-13T08:36:38;3.90;93.90
10233;DHT22;5161;48.174;11.756;2023-02-13T08:39:03;3.90;93.80
10233;DHT22;5161;48.174;11.756;2023-02-13T08:41:29;3.80;93.80
10233;DHT22;5161;48.174;11.756;2023-02-13T08:43:54;3.90;94.00
10233;DHT22;5161;48.174;11.756;2023-02-13T08:46:20;3.90;94.10
10233;DHT22;5161;48.174;11.756;2023-02-13T08:48:46;3.90;94.00
10233;DHT22;5161;48.174;11.756;2023-02-13T08:51:13;3.90;93.90
10233;DHT22;5161;48.174;11.756;2023-02-13T08:53:38;3.90;94.10
10233;DHT22;5161;48.174;11.756;2023-02-13T08:56:05;3.80;94.00
10233;DHT22;5161;48.174;11.756;2023-02-13T08:58:30;3.80;94.00
10233;DHT22;5161;48.174;11.756;2023-02-13T09:00:56;3.80;94.00
10233;DHT22;5161;48.174;11.756;2023-02-13T09:03:22;3.80;94.10
10233;DHT22;5161;48.174;11.756;2023-02-13T09:05:48;3.90;94.20
10233;DHT22;5161;48.174;11.756;2023-02-13T09:08:13;3.90;94.20
10233;DHT22;5161;48.174;11.756;2023-02-13T09:10:40;3.90;94.30
10233;DHT22;5161;48.174;11.756;2023-02-13T09:13:08;4.00;94.30
10233;DHT22;5161;48.174;11.756;2023-02-13T09:15:33;3.90;94.50
10233;DHT22;5161;48.174;11.756;2023-02-13T09:18:02;4.00;94.40
10233;DHT22;5161;48.174;11.756;2023-02-13T09:20:27;4.00;94.20
10233;DHT22;5161;48.174;11.756;2023-02-13T09:22:54;4.00;94.10
10233;DHT22;5161;48.174;11.756;2023-02-13T09:25:20;4.00;94.30
10233;DHT22;5161;48.174;11.756;2023-02-13T09:27:46;4.00;94.20
10233;DHT22;5161;48.174;11.756;2023-02-13T09:30:12;4.00;94.20
10233;DHT22;5161;48.174;11.756;2023-02-13T09:32:42;4.00;94.30
10233;DHT22;5161;48.174;11.756;2023-02-13T09:35:08;4.10;94.30
10233;DHT22;5161;48.174;11.756;2023-02-13T09:37:34;4.00;94.20
10233;DHT22;5161;48.174;11.756;2023-02-13T09:39:59;4.00;94.00
10233;DHT22;5161;48.174;11.756;2023-02-13T09:42:27;4.00;94.00
10233;DHT22;5161;48.174;11.756;2023-02-13T09:45:00;4.00;94.10
10233;DHT22;5161;48.174;11.756;2023-02-13T09:47:39;4.00;94.00
10233;DHT22;5161;48.174;11.756;2023-02-13T09:50:23;4.00;93.80
10233;DHT22;5161;48.174;11.756;2023-02-13T09:52:52;4.00;94.10
10233;DHT22;5161;48.174;11.756;2023-02-13T10:00:47;4.00;94.00
10233;DHT22;5161;48.174;11.756;2023-02-13T10:03:28;3.90;94.00
10233;DHT22;5161;48.174;11.756;2023-02-13T10:14:47;4.10;94.00
10233;DHT22;5161;48.174;11.756;2023-02-13T10:17:29;4.00;94.00
10233;DHT22;5161;48.174;11.756;2023-02-13T10:20:01;4.00;94.00
10233;DHT22;5161;48.174;11.756;2023-02-13T10:22:31;4.10;94.20
10233;DHT22;5161;48.174;11.756;2023-02-13T10:25:21;4.10;94.20
10233;DHT22;5161;48.174;11.756;2023-02-13T10:28:03;4.10;94.10
10233;DHT22;5161;48.174;11.756;2023-02-13T10:30:33;4.20;94.00
10233;DHT22;5161;48.174;11.756;2023-02-13T10:33:27;4.20;94.00
10233;DHT22;5161;48.174;11.756;2023-02-13T10:36:05;4.20;94.00
10233;DHT22;5161;48.174;11.756;2023-02-13T10:38:34;4.10;94.10
10233;DHT22;5161;48.174;11.756;2023-02-13T10:41:31;4.20;94.10
10233;DHT22;5161;48.174;11.756;2023-02-13T10:49:50;4.20;93.80
10233;DHT22;5161;48.174;11.756;2023-02-13T10:52:47;4.20;94.00
10233;DHT22;5161;48.174;11.756;2023-02-13T10:55:33;4.20;93.90
10233;DHT22;5161;48.174;11.756;2023-02-13T10:58:08;4.30;94.00
10233;DHT22;5161;48.174;11.756;2023-02-13T11:00:42;4.20;93.90
10233;DHT22;5161;48.174;11.756;2023-02-13T11:03:23;4.20;93.80
10233;DHT22;5161;48.174;11.756;2023-02-13T11:05:49;4.20;93.80
10233;DHT22;5161;48.174;11.756;2023-02-13T11:08:21;4.30;94.00
10233;DHT22;5161;48.174;11.756;2023-02-13T11:10:47;4.30;93.80
10233;DHT22;5161;48.174;11.756;2023-02-13T11:13:18;4.30;93.90
10233;DHT22;5161;48.174;11.756;2023-02-13T11:18:22;4.30;93.90
10233;DHT22;5161;48.174;11.756;2023-02-13T11:20:59;4.30;93.90
10233;DHT22;5161;48.174;11.756;2023-02-13T11:26:01;4.30;93.90
10233;DHT22;5161;48.174;11.756;2023-02-13T11:28:30;4.30;93.90
10233;DHT22;5161;48.174;11.756;2023-02-13T11:31:32;4.40;93.90
10233;DHT22;5161;48.174;11.756;2023-02-13T11:34:16;4.40;93.90
10233;DHT22;5161;48.174;11.756;2023-02-13T11:36:42;4.40;93.90
10233;DHT22;5161;48.174;11.756;2023-02-13T11:39:19;4.40;93.80
10233;DHT22;5161;48.174;11.756;2023-02-13T11:41:46;4.40;93.80
10233;DHT22;5161;48.174;11.756;2023-02-13T11:44:24;4.40;93.50
10233;DHT22;5161;48.174;11.756;2023-02-13T11:46:52;4.40;93.70
10233;DHT22;5161;48.174;11.756;2023-02-13T11:49:25;4.40;93.80
10233;DHT22;5161;48.174;11.756;2023-02-13T11:51:53;4.40;93.80
10233;DHT22;5161;48.174;11.756;2023-02-13T11:56:56;4.40;93.90
10233;DHT22;5161;48.174;11.756;2023-02-13T11:59:24;4.50;93.80
10233;DHT22;5161;48.174;11.756;2023-02-13T12:02:17;4.40;93.60
10233;DHT22;5161;48.174;11.756;2023-02-13T12:04:43;4.40;93.80
10233;DHT22;5161;48.174;11.756;2023-02-13T12:07:19;4.40;93.80
10233;DHT22;5161;48.174;11.756;2023-02-13T12:09:54;4.50;94.00
10233;DHT22;5161;48.174;11.756;2023-02-13T12:12:30;4.50;93.90
10233;DHT22;5161;48.174;11.756;2023-02-13T12:15:01;4.60;93.90
10233;DHT22;5161;48.174;11.756;2023-02-13T12:17:29;4.50;93.80
10233;DHT22;5161;48.174;11.756;2023-02-13T12:19:55;4.50;93.70
10233;DHT22;5161;48.174;11.756;2023-02-13T12:22:35;4.50;93.70
10233;DHT22;5161;48.174;11.756;2023-02-13T12:25:28;4.60;93.80
10233;DHT22;5161;48.174;11.756;2023-02-13T12:36:35;4.50;93.70
10233;DHT22;5161;48.174;11.756;2023-02-13T12:41:48;4.60;93.80
10233;DHT22;5161;48.174;11.756;2023-02-13T12:47:18;4.60;93.60
10233;DHT22;5161;48.174;11.756;2023-02-13T12:58:01;4.50;93.60
10233;DHT22;5161;48.174;11.756;2023-02-13T13:00:42;4.50;93.70
10233;DHT22;5161;48.174;11.756;2023-02-13T13:09:06;4.60;93.70
10233;DHT22;5161;48.174;11.756;2023-02-13T13:11:44;4.60;93.40
10233;DHT22;5161;48.174;11.756;2023-02-13T13:14:35;4.60;93.70
10233;DHT22;5161;48.174;11.756;2023-02-13T13:17:23;4.60;93.50
10233;DHT22;5161;48.174;11.756;2023-02-13T13:22:36;4.60;93.80
10233;DHT22;5161;48.174;11.756;2023-02-13T13:25:11;4.60;93.60
10233;DHT22;5161;48.174;11.756;2023-02-13T13:27:45;4.60;93.60
10233;DHT22;5161;48.174;11.756;2023-02-13T13:30:22;4.70;93.40
10233;DHT22;5161;48.174;11.756;2023-02-13T13:32:55;4.70;93.70
10233;DHT22;5161;48.174;11.756;2023-02-13T13:35:23;4.60;93.60
10233;DHT22;5161;48.174;11.756;2023-02-13T13:38:24;4.70;93.50
10233;DHT22;5161;48.174;11.756;2023-02-13T13:41:14;4.60;93.50
10233;DHT22;5161;48.174;11.756;2023-02-13T13:49:29;4.80;94.10
10233;DHT22;5161;48.174;11.756;2023-02-13T13:52:29;4.90;93.70
10233;DHT22;5161;48.174;11.756;2023-02-13T13:54:56;4.70;93.50
10233;DHT22;5161;48.174;11.756;2023-02-13T13:57:26;4.70;93.60
10233;DHT22;5161;48.174;11.756;2023-02-13T14:00:40;4.70;93.60
10233;DHT22;5161;48.174;11.756;2023-02-13T14:08:00;4.70;93.50
10233;DHT22;5161;48.174;11.756;2023-02-13T14:20:59;4.80;93.60
10233;DHT22;5161;48.174;11.756;2023-02-13T14:23:45;4.80;93.60
10233;DHT22;5161;48.174;11.756;2023-02-13T14:31:34;4.70;93.60
10233;DHT22;5161;48.174;11.756;2023-02-13T14:36:38;4.80;93.60
10233;DHT22;5161;48.174;11.756;2023-02-13T14:39:17;4.80;93.50
10233;DHT22;5161;48.174;11.756;2023-02-13T14:44:29;4.80;93.50
10233;DHT22;5161;48.174;11.756;2023-02-13T14:46:59;4.80;93.70
10233;DHT22;5161;48.174;11.756;2023-02-13T14:49:28;4.80;93.40
10233;DHT22;5161;48.174;11.756;2023-02-13T14:52:00;4.80;93.50
10233;DHT22;5161;48.174;11.756;2023-02-13T14:54:47;4.80;93.60
10233;DHT22;5161;48.174;11.756;2023-02-13T14:57:19;4.80;93.60
10233;DHT22;5161;48.174;11.756;2023-02-13T14:59:54;4.90;93.70
10233;DHT22;5161;48.174;11.756;2023-02-13T15:02:34;4.90;93.60
10233;DHT22;5161;48.174;11.756;2023-02-13T15:05:13;4.80;93.50
10233;DHT22;5161;48.174;11.756;2023-02-13T15:08:05;4.80;93.50
10233;DHT22;5161;48.174;11.756;2023-02-13T15:10:45;4.80;93.40
10233;DHT22;5161;48.174;11.756;2023-02-13T15:13:20;4.90;93.60
10233;DHT22;5161;48.174;11.756;2023-02-13T15:15:52;4.90;93.70
10233;DHT22;5161;48.174;11.756;2023-02-13T15:18:44;4.90;93.60
10233;DHT22;5161;48.174;11.756;2023-02-13T15:21:15;4.90;93.50
10233;DHT22;5161;48.174;11.756;2023-02-13T15:23:42;4.90;93.60
10233;DHT22;5161;48.174;11.756;2023-02-13T15:26:15;4.90;93.50
10233;DHT22;5161;48.174;11.756;2023-02-13T15:29:18;4.90;93.80
10233;DHT22;5161;48.174;11.756;2023-02-13T15:31:42;4.90;93.60
10233;DHT22;5161;48.174;11.756;2023-02-13T15:34:20;4.90;93.60
10233;DHT22;5161;48.174;11.756;2023-02-13T15:36:47;4.90;93.60
10233;DHT22;5161;48.174;11.756;2023-02-13T15:39:18;4.90;93.60
10233;DHT22;5161;48.174;11.756;2023-02-13T15:41:59;5.00;93.60
10233;DHT22;5161;48.174;11.756;2023-02-13T15:44:34;5.00;93.60
10233;DHT22;5161;48.174;11.756;2023-02-13T15:47:04;5.00;93.50
10233;DHT22;5161;48.174;11.756;2023-02-13T15:49:37;4.90;93.40
10233;DHT22;5161;48.174;11.756;2023-02-13T15:52:11;4.90;93.50
10233;DHT22;5161;48.174;11.756;2023-02-13T15:54:50;4.90;93.50
10233;DHT22;5161;48.174;11.756;2023-02-13T15:57:17;4.90;93.50
10233;DHT22;5161;48.174;11.756;2023-02-13T15:59:44;4.90;93.40
10233;DHT22;5161;48.174;11.756;2023-02-13T16:02:40;4.90;93.40
10233;DHT22;5161;48.174;11.756;2023-02-13T16:05:10;4.80;93.40
10233;DHT22;5161;48.174;11.756;2023-02-13T16:07:54;4.80;93.50
10233;DHT22;5161;48.174;11.756;2023-02-13T16:10:26;4.80;93.50
10233;DHT22;5161;48.174;11.756;2023-02-13T16:12:52;4.80;93.50
10233;DHT22;5161;48.174;11.756;2023-02-13T16:15:20;4.80;93.40
10233;DHT22;5161;48.174;11.756;2023-02-13T16:17:47;4.80;93.40
10233;DHT22;5161;48.174;11.756;2023-02-13T16:22:43;4.80;93.40
10233;DHT22;5161;48.174;11.756;2023-02-13T16:25:17;4.80;93.50
10233;DHT22;5161;48.174;11.756;2023-02-13T16:30:23;4.70;93.40
10233;DHT22;5161;48.174;11.756;2023-02-13T16:32:49;4.70;93.50
10233;DHT22;5161;48.174;11.756;2023-02-13T16:35:27;4.70;93.50
10233;DHT22;5161;48.174;11.756;2023-02-13T16:38:00;4.70;93.60
10233;DHT22;5161;48.174;11.756;2023-02-13T16:43:36;4.70;93.60
10233;DHT22;5161;48.174;11.756;2023-02-13T16:52:14;4.80;93.60
10233;DHT22;5161;48.174;11.756;2023-02-13T16:54:38;4.70;93.60
10233;DHT22;5161;48.174;11.756;2023-02-13T17:04:54;4.70;93.60
10233;DHT22;5161;48.174;11.756;2023-02-13T17:07:29;4.70;93.60
10233;DHT22;5161;48.174;11.756;2023-02-13T17:12:48;4.60;93.70
10233;DHT22;5161;48.174;11.756;2023-02-13T17:15:17;4.60;93.60
10233;DHT22;5161;48.174;11.756;2023-02-13T17:17:44;4.60;93.60
10233;DHT22;5161;48.174;11.756;2023-02-13T17:20:18;4.60;93.60
10233;DHT22;5161;48.174;11.756;2023-02-13T17:22:46;4.60;93.70
10233;DHT22;5161;48.174;11.756;2023-02-13T17:25:22;4.50;93.60
10233;DHT22;5161;48.174;11.756;2023-02-13T17:27:53;4.60;93.80
10233;DHT22;5161;48.174;11.756;2023-02-13T17:30:23;4.60;93.70
10233;DHT22;5161;48.174;11.756;2023-02-13T17:33:13;4.60;93.70
10233;DHT22;5161;48.174;11.756;2023-02-13T17:35:38;4.50;93.60
10233;DHT22;5161;48.174;11.756;2023-02-13T17:38:13;4.50;93.60
10233;DHT22;5161;48.174;11.756;2023-02-13T17:40:40;4.50;93.60
10233;DHT22;5161;48.174;11.756;2023-02-13T17:43:06;4.40;93.60
10233;DHT22;5161;48.174;11.756;2023-02-13T17:45:33;4.50;93.60
10233;DHT22;5161;48.174;11.756;2023-02-13T17:47:58;4.40;93.60
10233;DHT22;5161;48.174;11.756;2023-02-13T17:50:26;4.40;93.50
10233;DHT22;5161;48.174;11.756;2023-02-13T17:52:52;4.40;93.60
10233;DHT22;5161;48.174;11.756;2023-02-13T17:55:25;4.40;93.50
10233;DHT22;5161;48.174;11.756;2023-02-13T17:57:52;4.30;93.60
10233;DHT22;5161;48.174;11.756;2023-02-13T18:00:19;4.30;93.50
10233;DHT22;5161;48.174;11.756;2023-02-13T18:02:46;4.20;93.70
10233;DHT22;5161;48.174;11.756;2023-02-13T18:05:13;4.20;93.60
10233;DHT22;5161;48.174;11.756;2023-02-13T18:07:39;4.20;93.60
10233;DHT22;5161;48.174;11.756;2023-02-13T18:10:14;4.20;93.60
10233;DHT22;5161;48.174;11.756;2023-02-13T18:12:40;4.20;93.60
10233;DHT22;5161;48.174;11.756;2023-02-13T18:15:06;4.20;93.60
10233;DHT22;5161;48.174;11.756;2023-02-13T18:17:32;4.10;93.40
10233;DHT22;5161;48.174;11.756;2023-02-13T18:19:57;4.10;93.50
10233;DHT22;5161;48.174;11.756;2023-02-13T18:22:24;4.00;93.50
10233;DHT22;5161;48.174;11.756;2023-02-13T18:24:49;4.00;93.50
10233;DHT22;5161;48.174;11.756;2023-02-13T18:27:15;4.00;93.50
10233;DHT22;5161;48.174;11.756;2023-02-13T18:29:41;3.90;93.40
10233;DHT22;5161;48.174;11.756;2023-02-13T18:32:08;3.90;93.50
10233;DHT22;5161;48.174;11.756;2023-02-13T18:34:35;3.90;93.60
10233;DHT22;5161;48.174;11.756;2023-02-13T18:37:01;3.90;93.60
10233;DHT22;5161;48.174;11.756;2023-02-13T18:39:27;3.90;93.60
10233;DHT22;5161;48.174;11.756;2023-02-13T18:41:52;3.90;93.70
10233;DHT22;5161;48.174;11.756;2023-02-13T18:44:18;4.00;93.70
10233;DHT22;5161;48.174;11.756;2023-02-13T18:46:43;3.90;93.70